createdAt,value
2019-02-17T00:00:25.820Z,24.20
2019-02-17T00:02:57.818Z,24.57
2019-02-17T00:05:32.234Z,24.93
2019-02-17T00:08:04.211Z,25.00
2019-02-17T00:10:36.162Z,25.03
2019-02-17T00:13:08.388Z,24.53
2019-02-17T00:15:40.363Z,26.87
2019-02-17T00:18:12.297Z,25.00
2019-02-17T00:20:44.255Z,24.00
2019-02-17T00:23:16.264Z,24.10
2019-02-17T00:25:48.358Z,24.07
2019-02-17T00:28:20.294Z,24.47
2019-02-17T00:30:52.714Z,25.60
2019-02-17T00:33:24.647Z,24.87
2019-02-17T00:35:56.595Z,26.37
2019-02-17T00:38:28.525Z,25.47
2019-02-17T00:41:00.487Z,25.30
2019-02-17T00:43:32.419Z,24.70
2019-02-17T00:46:04.357Z,24.73
2019-02-17T00:48:36.307Z,25.77
2019-02-17T00:51:08.239Z,23.70
2019-02-17T00:53:40.533Z,24.00
2019-02-17T00:56:12.479Z,24.13
2019-02-17T00:58:44.777Z,24.40
2019-02-17T01:01:16.807Z,23.50
2019-02-17T01:03:49.243Z,24.07
2019-02-17T01:06:21.362Z,22.40
2019-02-17T01:08:53.291Z,23.97
2019-02-17T01:11:25.244Z,24.13
2019-02-17T01:13:57.169Z,24.13
2019-02-17T01:16:29.108Z,24.73
2019-02-17T01:19:01.042Z,22.83
2019-02-17T01:21:32.994Z,23.13
2019-02-17T01:24:05.862Z,22.97
2019-02-17T01:26:37.820Z,23.60
2019-02-17T01:29:19.837Z,24.10
2019-02-17T01:31:43.717Z,23.37
2019-02-17T01:34:15.710Z,23.43
2019-02-17T01:36:47.650Z,23.37
2019-02-17T01:39:19.761Z,24.07
2019-02-17T01:41:51.697Z,22.80
2019-02-17T01:44:23.638Z,23.07
2019-02-17T01:46:56.143Z,23.83
2019-02-17T01:49:28.465Z,23.80
2019-02-17T01:52:00.472Z,24.27
2019-02-17T01:54:32.789Z,21.80
2019-02-17T01:57:05.414Z,23.50
2019-02-17T01:59:37.625Z,24.80
2019-02-17T02:02:09.566Z,24.10
2019-02-17T02:04:41.497Z,23.40
2019-02-17T02:07:13.630Z,24.97
2019-02-17T02:09:45.561Z,24.90
2019-02-17T02:12:17.581Z,25.40
2019-02-17T02:14:49.531Z,25.67
2019-02-17T02:17:21.479Z,24.50
2019-02-17T02:19:53.475Z,23.73
2019-02-17T02:22:25.426Z,24.83
2019-02-17T02:24:57.673Z,24.20
2019-02-17T02:27:29.675Z,24.67
2019-02-17T02:30:01.748Z,25.10
2019-02-17T02:32:34.332Z,23.93
2019-02-17T02:35:07.325Z,24.60
2019-02-17T02:37:39.648Z,25.17
2019-02-17T02:40:11.590Z,24.87
2019-02-17T02:42:47.816Z,24.17
2019-02-17T02:45:19.803Z,25.80
2019-02-17T02:47:51.993Z,25.07
2019-02-17T02:50:23.960Z,24.23
2019-02-17T02:52:56.151Z,26.07
2019-02-17T02:55:28.106Z,25.53
2019-02-17T02:58:00.024Z,25.03
2019-02-17T03:00:31.975Z,25.27
2019-02-17T03:03:03.898Z,24.93
2019-02-17T03:05:37.487Z,27.00
2019-02-17T03:08:09.430Z,24.37
2019-02-17T03:10:41.356Z,23.67
2019-02-17T03:13:13.348Z,25.10
2019-02-17T03:15:45.302Z,24.23
2019-02-17T03:18:17.273Z,24.10
2019-02-17T03:20:49.296Z,25.03
2019-02-17T03:23:21.245Z,23.27
2019-02-17T03:25:53.181Z,24.13
2019-02-17T03:28:25.120Z,26.00
2019-02-17T03:31:01.569Z,25.27
2019-02-17T03:33:33.506Z,24.77
2019-02-17T03:36:05.447Z,24.57
2019-02-17T03:38:37.370Z,24.30
2019-02-17T03:41:09.412Z,24.43
2019-02-17T03:43:41.352Z,23.83
2019-02-17T03:46:13.286Z,25.53
2019-02-17T03:48:45.304Z,24.00
2019-02-17T03:51:17.543Z,23.23
2019-02-17T03:53:49.575Z,23.40
2019-02-17T03:56:21.889Z,23.47
2019-02-17T03:58:53.886Z,24.73
2019-02-17T04:01:25.895Z,23.60
2019-02-17T04:03:58.189Z,24.30
2019-02-17T04:06:30.156Z,24.90
2019-02-17T04:09:02.111Z,24.80
2019-02-17T04:11:34.053Z,24.90
2019-02-17T04:14:05.987Z,24.63
2019-02-17T04:16:37.923Z,23.77
2019-02-17T04:19:09.893Z,24.73
2019-02-17T04:21:41.819Z,23.50
2019-02-17T04:24:13.763Z,24.17
2019-02-17T04:26:46.070Z,23.80
2019-02-17T04:29:18.009Z,24.17
2019-02-17T04:31:49.937Z,25.53
2019-02-17T04:34:21.877Z,24.77
2019-02-17T04:36:53.811Z,24.73
2019-02-17T04:39:26.233Z,26.03
2019-02-17T04:41:58.162Z,24.27
2019-02-17T04:44:30.124Z,25.03
2019-02-17T04:47:02.061Z,24.90
2019-02-17T04:49:34.164Z,25.40
2019-02-17T04:52:06.429Z,26.47
2019-02-17T04:54:38.362Z,24.67
2019-02-17T04:57:10.323Z,25.03
2019-02-17T04:59:42.256Z,24.63
2019-02-17T05:02:14.228Z,24.93
2019-02-17T05:04:46.749Z,27.13
2019-02-17T05:07:18.701Z,26.37
2019-02-17T05:09:50.631Z,26.37
2019-02-17T05:12:22.947Z,25.93
2019-02-17T05:14:55.150Z,27.27
2019-02-17T05:17:27.186Z,25.83
2019-02-17T05:19:59.131Z,26.43
2019-02-17T05:22:32.618Z,25.57
2019-02-17T05:25:06.183Z,26.43
2019-02-17T05:27:41.845Z,27.00
2019-02-17T05:30:14.789Z,26.03
2019-02-17T05:32:47.093Z,27.73
2019-02-17T05:35:19.267Z,26.23
2019-02-17T05:37:51.412Z,28.00
2019-02-17T05:40:23.509Z,25.83
2019-02-17T05:42:55.444Z,25.57
2019-02-17T05:45:27.389Z,26.70
2019-02-17T05:47:59.964Z,26.70
2019-02-17T05:50:34.921Z,27.17
2019-02-17T05:53:07.319Z,26.67
2019-02-17T05:55:39.265Z,24.57
2019-02-17T05:58:11.205Z,25.70
2019-02-17T06:00:43.599Z,25.53
2019-02-17T06:03:15.594Z,25.87
2019-02-17T06:05:47.699Z,26.70
2019-02-17T06:08:20.178Z,25.70
2019-02-17T06:10:52.153Z,26.00
2019-02-17T06:13:24.072Z,24.10
2019-02-17T06:15:56.014Z,24.37
2019-02-17T06:18:28.238Z,24.70
2019-02-17T06:21:00.177Z,24.30
2019-02-17T06:23:32.200Z,24.47
2019-02-17T06:26:04.229Z,24.37
2019-02-17T06:28:36.165Z,23.03
2019-02-17T06:31:14.334Z,23.80
2019-02-17T06:33:41.834Z,23.40
2019-02-17T06:36:13.814Z,24.57
2019-02-17T06:38:45.742Z,24.73
2019-02-17T06:41:17.685Z,23.63
2019-02-17T06:43:49.604Z,23.10
2019-02-17T06:46:23.185Z,23.53
2019-02-17T06:48:55.200Z,23.53
2019-02-17T06:51:27.959Z,24.17
2019-02-17T06:53:59.975Z,23.17
2019-02-17T06:56:36.239Z,22.53
2019-02-17T06:59:08.173Z,23.47
2019-02-17T07:01:40.099Z,23.73
2019-02-17T07:04:12.995Z,23.37
2019-02-17T07:06:54.191Z,23.27
2019-02-17T07:09:26.131Z,22.17
2019-02-17T07:11:58.064Z,23.23
2019-02-17T07:14:30.059Z,23.33
2019-02-17T07:17:01.997Z,23.33
2019-02-17T07:19:35.479Z,22.87
2019-02-17T07:22:09.084Z,22.43
2019-02-17T07:24:41.018Z,23.43
2019-02-17T07:27:12.966Z,22.00
2019-02-17T07:29:44.898Z,21.17
2019-02-17T07:32:16.839Z,21.63
2019-02-17T07:34:48.910Z,21.37
2019-02-17T07:37:20.862Z,22.17
2019-02-17T07:39:52.789Z,21.80
2019-02-17T07:42:24.734Z,21.07
2019-02-17T07:44:56.669Z,21.47
2019-02-17T07:47:28.637Z,21.70
2019-02-17T07:50:00.565Z,21.77
2019-02-17T07:52:34.239Z,22.17
2019-02-17T07:55:10.269Z,20.73
2019-02-17T07:57:42.227Z,21.67
2019-02-17T08:00:14.287Z,21.53
2019-02-17T08:02:46.230Z,21.80
2019-02-17T08:05:18.469Z,21.90
2019-02-17T08:07:50.733Z,23.07
2019-02-17T08:10:23.015Z,23.47
2019-02-17T08:12:54.944Z,21.53
2019-02-17T08:15:27.389Z,21.37
2019-02-17T08:17:59.320Z,22.13
2019-02-17T08:20:31.255Z,22.30
2019-02-17T08:23:03.185Z,22.53
2019-02-17T08:25:35.122Z,22.67
2019-02-17T08:28:07.494Z,22.60
2019-02-17T08:30:39.396Z,22.47
2019-02-17T08:33:11.608Z,22.73
2019-02-17T08:35:43.559Z,24.33
2019-02-17T08:38:15.509Z,24.00
2019-02-17T08:40:47.469Z,22.93
2019-02-17T08:43:19.419Z,22.40
2019-02-17T08:45:51.364Z,21.50
2019-02-17T08:48:24.921Z,22.20
2019-02-17T08:50:56.790Z,22.63
2019-02-17T08:53:28.752Z,22.97
2019-02-17T08:56:00.690Z,23.57
2019-02-17T08:58:32.928Z,22.83
2019-02-17T09:01:10.071Z,21.67
2019-02-17T09:03:42.035Z,23.23
2019-02-17T09:06:13.966Z,23.63
2019-02-17T09:08:45.915Z,24.27
2019-02-17T09:11:17.855Z,24.77
2019-02-17T09:13:49.810Z,22.80
2019-02-17T09:16:21.750Z,23.97
2019-02-17T09:18:53.715Z,25.17
2019-02-17T09:21:25.644Z,24.67
2019-02-17T09:23:57.626Z,23.43
2019-02-17T09:26:29.800Z,24.17
2019-02-17T09:29:01.816Z,24.47
2019-02-17T09:31:34.130Z,25.27
2019-02-17T09:34:06.112Z,25.00
2019-02-17T09:36:38.376Z,24.80
2019-02-17T09:39:10.957Z,25.97
2019-02-17T09:41:42.889Z,25.03
2019-02-17T09:44:14.891Z,25.60
2019-02-17T09:46:46.845Z,24.73
2019-02-17T09:49:18.839Z,25.47
2019-02-17T09:51:50.770Z,25.23
2019-02-17T09:54:22.727Z,26.60
2019-02-17T09:56:55.728Z,26.80
2019-02-17T09:59:27.683Z,27.40
2019-02-17T10:01:59.682Z,27.03
2019-02-17T10:04:31.621Z,25.77
2019-02-17T10:07:04.037Z,27.53
2019-02-17T10:09:35.968Z,26.53
2019-02-17T10:12:13.597Z,27.47
2019-02-17T10:14:45.569Z,29.07
2019-02-17T10:17:17.779Z,28.37
2019-02-17T10:19:49.844Z,27.80
2019-02-17T10:22:21.744Z,28.53
2019-02-17T10:24:53.702Z,27.70
2019-02-17T10:27:25.655Z,28.20
2019-02-17T10:29:57.651Z,29.00
2019-02-17T10:32:36.469Z,26.90
2019-02-17T10:35:03.242Z,27.63
2019-02-17T10:37:35.175Z,27.10
2019-02-17T10:40:17.175Z,27.57
2019-02-17T10:42:49.129Z,26.43
2019-02-17T10:45:21.072Z,25.53
2019-02-17T10:47:53.032Z,27.50
2019-02-17T10:50:24.998Z,28.20
2019-02-17T10:52:57.003Z,28.70
2019-02-17T10:55:29.041Z,26.83
2019-02-17T10:58:01.001Z,28.10
2019-02-17T11:00:33.024Z,27.20
2019-02-17T11:03:08.191Z,28.33
2019-02-17T11:05:40.278Z,29.20
2019-02-17T11:08:12.221Z,29.60
2019-02-17T11:10:44.227Z,28.13
2019-02-17T11:13:16.431Z,30.63
2019-02-17T11:15:48.380Z,30.20
2019-02-17T11:18:20.309Z,29.07
2019-02-17T11:20:52.269Z,28.43
2019-02-17T11:23:24.283Z,29.30
2019-02-17T11:25:56.600Z,29.63
2019-02-17T11:28:28.532Z,30.63
2019-02-17T11:31:00.547Z,28.47
2019-02-17T11:33:32.933Z,27.77
2019-02-17T11:36:04.943Z,31.70
2019-02-17T11:38:36.885Z,30.03
2019-02-17T11:41:08.832Z,30.87
2019-02-17T11:43:40.804Z,32.63
2019-02-17T11:46:13.370Z,29.67
2019-02-17T11:48:45.687Z,30.07
2019-02-17T11:51:17.625Z,30.20
2019-02-17T11:53:49.574Z,30.70
2019-02-17T11:56:21.518Z,30.77
2019-02-17T11:58:53.853Z,28.83
2019-02-17T12:01:26.127Z,28.97
2019-02-17T12:03:58.073Z,28.07
2019-02-17T12:06:30.049Z,27.63
2019-02-17T12:09:01.979Z,28.73
2019-02-17T12:11:34.111Z,27.60
2019-02-17T12:14:06.054Z,28.90
2019-02-17T12:16:38.413Z,27.00
2019-02-17T12:19:10.353Z,26.27
2019-02-17T12:21:44.027Z,25.43
2019-02-17T12:24:23.807Z,26.60
2019-02-17T12:27:06.409Z,26.30
2019-02-17T12:29:40.065Z,24.23
2019-02-17T12:32:12.009Z,26.87
2019-02-17T12:34:44.013Z,25.00
2019-02-17T12:37:16.008Z,25.13
2019-02-17T12:39:47.942Z,25.67
2019-02-17T12:42:19.897Z,23.20
2019-02-17T12:44:51.922Z,22.77
2019-02-17T12:47:23.932Z,22.33
2019-02-17T12:49:55.887Z,21.30
2019-02-17T12:52:27.829Z,21.23
2019-02-17T12:54:59.778Z,20.83
2019-02-17T12:57:31.727Z,19.67
2019-02-17T13:00:04.918Z,21.27
2019-02-17T13:02:36.887Z,22.87
2019-02-17T13:05:10.552Z,21.13
2019-02-17T13:07:43.054Z,21.37
2019-02-17T13:10:15.197Z,21.23
2019-02-17T13:12:47.155Z,21.73
2019-02-17T13:15:19.092Z,20.57
2019-02-17T13:17:52.975Z,19.83
2019-02-17T13:20:24.802Z,17.73
2019-02-17T13:22:56.811Z,18.50
2019-02-17T13:25:28.788Z,18.57
2019-02-17T13:28:00.811Z,18.40
2019-02-17T13:30:32.746Z,18.50
2019-02-17T13:33:04.782Z,18.00
2019-02-17T13:35:36.789Z,18.23
2019-02-17T13:38:08.798Z,18.37
2019-02-17T13:40:40.828Z,19.03
2019-02-17T13:43:12.766Z,19.40
2019-02-17T13:45:45.598Z,19.90
2019-02-17T13:48:17.535Z,21.67
2019-02-17T13:50:49.476Z,23.07
2019-02-17T13:53:21.429Z,22.50
2019-02-17T13:55:54.559Z,22.53
2019-02-17T13:58:26.497Z,22.20
2019-02-17T14:00:58.446Z,24.67
2019-02-17T14:03:30.383Z,25.17
2019-02-17T14:06:02.427Z,25.47
2019-02-17T14:08:34.375Z,25.50
2019-02-17T14:11:06.679Z,23.60
2019-02-17T14:13:38.648Z,23.17
2019-02-17T14:16:10.619Z,23.30
2019-02-17T14:18:42.551Z,22.80
2019-02-17T14:21:14.836Z,23.43
2019-02-17T14:23:46.915Z,23.63
2019-02-17T14:26:18.850Z,22.90
2019-02-17T14:28:50.905Z,21.17
2019-02-17T14:31:22.839Z,21.87
2019-02-17T14:33:58.793Z,23.30
2019-02-17T14:36:30.297Z,23.03
2019-02-17T14:39:02.253Z,22.87
2019-02-17T14:41:34.541Z,22.57
2019-02-17T14:44:06.490Z,23.33
2019-02-17T14:46:41.570Z,21.33
2019-02-17T14:49:13.505Z,22.00
2019-02-17T14:51:45.634Z,22.53
2019-02-17T14:54:17.572Z,23.17
2019-02-17T14:56:49.602Z,23.10
2019-02-17T14:59:21.630Z,22.47
2019-02-17T15:01:53.600Z,21.97
2019-02-17T15:04:25.535Z,23.07
2019-02-17T15:06:57.558Z,24.23
2019-02-17T15:09:29.835Z,23.70
2019-02-17T15:12:01.802Z,24.27
2019-02-17T15:14:33.743Z,24.00
2019-02-17T15:17:05.691Z,24.00
2019-02-17T15:19:37.662Z,25.43
2019-02-17T15:22:09.618Z,24.03
2019-02-17T15:24:41.561Z,23.80
2019-02-17T15:27:14.100Z,23.57
2019-02-17T15:29:46.044Z,23.80
2019-02-17T15:32:17.999Z,24.07
2019-02-17T15:34:49.937Z,24.27
2019-02-17T15:37:22.763Z,22.40
2019-02-17T15:39:54.697Z,24.40
2019-02-17T15:42:26.646Z,23.93
2019-02-17T15:44:58.641Z,23.83
2019-02-17T15:47:30.597Z,23.87
2019-02-17T15:50:02.530Z,25.20
2019-02-17T15:52:34.774Z,25.33
2019-02-17T15:55:14.891Z,25.10
2019-02-17T15:57:48.932Z,24.87
2019-02-17T16:00:21.288Z,24.20
2019-02-17T16:02:53.623Z,25.20
2019-02-17T16:05:26.458Z,24.03
2019-02-17T16:07:58.420Z,24.40
2019-02-17T16:10:30.371Z,23.93
2019-02-17T16:13:02.311Z,23.67
2019-02-17T16:15:34.644Z,25.33
2019-02-17T16:18:06.583Z,24.43
2019-02-17T16:20:38.577Z,24.30
2019-02-17T16:23:10.510Z,25.27
2019-02-17T16:25:42.475Z,24.03
2019-02-17T16:28:18.227Z,24.53
2019-02-17T16:30:50.189Z,25.40
2019-02-17T16:33:22.403Z,24.50
2019-02-17T16:35:54.416Z,25.03
2019-02-17T16:38:26.527Z,24.70
2019-02-17T16:40:58.478Z,25.73
2019-02-17T16:43:30.495Z,23.80
2019-02-17T16:46:02.430Z,25.13
2019-02-17T16:48:34.387Z,24.40
2019-02-17T16:51:06.325Z,24.77
2019-02-17T16:53:38.280Z,26.20
2019-02-17T16:56:10.229Z,25.03
2019-02-17T16:58:42.467Z,23.70
2019-02-17T17:01:14.395Z,25.40
2019-02-17T17:03:46.418Z,24.43
2019-02-17T17:06:18.369Z,25.87
2019-02-17T17:08:50.320Z,26.50
2019-02-17T17:11:22.534Z,24.33
2019-02-17T17:13:54.808Z,25.47
2019-02-17T17:16:27.010Z,25.23
2019-02-17T17:18:58.968Z,24.20
2019-02-17T17:21:30.899Z,23.60
2019-02-17T17:24:03.500Z,25.07
2019-02-17T17:26:35.564Z,22.87
2019-02-17T17:29:07.503Z,23.83
2019-02-17T17:31:39.447Z,23.37
2019-02-17T17:34:12.344Z,24.00
2019-02-17T17:36:44.276Z,24.77
2019-02-17T17:39:16.219Z,26.27
2019-02-17T17:41:48.149Z,24.27
2019-02-17T17:44:20.119Z,25.27
2019-02-17T17:46:52.046Z,22.47
2019-02-17T17:49:24.338Z,24.17
2019-02-17T17:51:56.655Z,24.77
2019-02-17T17:54:28.623Z,24.97
2019-02-17T17:57:00.758Z,23.70
2019-02-17T17:59:32.685Z,25.10
2019-02-17T18:02:04.898Z,24.97
2019-02-17T18:04:36.885Z,25.63
2019-02-17T18:07:09.263Z,25.30
2019-02-17T18:09:41.214Z,25.27
2019-02-17T18:12:13.142Z,25.30
2019-02-17T18:14:45.109Z,25.07
2019-02-17T18:17:17.033Z,24.17
2019-02-17T18:19:50.733Z,23.90
2019-02-17T18:22:22.662Z,26.83
2019-02-17T18:24:54.606Z,26.30
2019-02-17T18:27:26.528Z,27.30
2019-02-17T18:29:59.036Z,26.23
2019-02-17T18:32:33.864Z,26.07
2019-02-17T18:35:06.421Z,26.53
2019-02-17T18:37:38.436Z,27.43
2019-02-17T18:40:17.071Z,27.20
2019-02-17T18:42:49.043Z,26.63
2019-02-17T18:45:20.989Z,26.77
2019-02-17T18:47:53.621Z,26.33
2019-02-17T18:50:25.553Z,28.17
2019-02-17T18:52:57.768Z,26.90
2019-02-17T18:55:29.714Z,28.27
2019-02-17T18:58:01.711Z,25.70
2019-02-17T19:00:33.666Z,27.00
2019-02-17T19:03:06.144Z,26.57
2019-02-17T19:05:38.100Z,25.63
2019-02-17T19:08:10.028Z,26.03
2019-02-17T19:10:41.989Z,26.83
2019-02-17T19:13:13.925Z,27.53
2019-02-17T19:15:45.934Z,27.43
2019-02-17T19:18:17.858Z,25.83
2019-02-17T19:20:49.801Z,27.43
2019-02-17T19:23:22.077Z,26.13
2019-02-17T19:25:54.109Z,27.83
2019-02-17T19:28:26.037Z,25.23
2019-02-17T19:30:57.983Z,26.43
2019-02-17T19:33:29.934Z,25.37
2019-02-17T19:36:02.292Z,26.97
2019-02-17T19:38:34.256Z,25.53
2019-02-17T19:41:06.190Z,24.83
2019-02-17T19:43:38.119Z,25.83
2019-02-17T19:46:10.048Z,24.63
2019-02-17T19:48:42.113Z,25.70
2019-02-17T19:51:14.062Z,24.77
2019-02-17T19:53:46.018Z,24.73
2019-02-17T19:56:18.018Z,24.33
2019-02-17T19:58:50.324Z,25.47
2019-02-17T20:01:23.023Z,24.80
2019-02-17T20:03:56.614Z,25.10
2019-02-17T20:06:37.386Z,26.00
2019-02-17T20:09:10.956Z,25.63
2019-02-17T20:11:42.877Z,25.47
2019-02-17T20:14:15.164Z,26.47
2019-02-17T20:16:47.097Z,25.50
2019-02-17T20:19:19.220Z,25.70
2019-02-17T20:21:51.250Z,24.93
2019-02-17T20:24:23.173Z,26.17
2019-02-17T20:26:55.118Z,26.53
2019-02-17T20:29:27.112Z,25.63
2019-02-17T20:31:59.040Z,26.00
2019-02-17T20:34:30.969Z,24.63
2019-02-17T20:37:02.991Z,25.37
2019-02-17T20:39:34.906Z,24.30
2019-02-17T20:42:06.869Z,27.03
2019-02-17T20:44:39.961Z,26.70
2019-02-17T20:47:11.899Z,25.57
2019-02-17T20:49:43.836Z,25.00
2019-02-17T20:52:15.827Z,24.67
2019-02-17T20:54:47.767Z,24.93
2019-02-17T20:57:19.682Z,25.40
2019-02-17T20:59:51.951Z,24.07
2019-02-17T21:02:23.867Z,25.60
2019-02-17T21:04:55.824Z,26.03
2019-02-17T21:07:27.753Z,25.47
2019-02-17T21:09:59.760Z,24.93
2019-02-17T21:12:31.759Z,23.60
2019-02-17T21:15:03.712Z,24.07
2019-02-17T21:17:36.005Z,25.47
2019-02-17T21:20:11.215Z,24.33
2019-02-17T21:22:43.418Z,26.13
2019-02-17T21:25:16.144Z,24.77
2019-02-17T21:27:48.095Z,26.00
2019-02-17T21:30:21.739Z,25.47
2019-02-17T21:32:53.671Z,25.63
2019-02-17T21:35:25.893Z,24.87
2019-02-17T21:37:58.158Z,25.60
2019-02-17T21:40:30.082Z,25.10
2019-02-17T21:43:02.009Z,25.27
2019-02-17T21:45:33.942Z,25.93
2019-02-17T21:48:06.237Z,25.67
2019-02-17T21:50:38.188Z,26.17
2019-02-17T21:53:20.046Z,26.07
2019-02-17T21:55:43.756Z,25.63
2019-02-17T21:58:15.671Z,25.60
2019-02-17T22:00:47.671Z,26.27
2019-02-17T22:03:19.616Z,27.27
2019-02-17T22:05:51.550Z,27.50
2019-02-17T22:08:26.065Z,26.93
2019-02-17T22:10:57.109Z,26.53
2019-02-17T22:13:29.086Z,26.90
2019-02-17T22:16:01.413Z,27.33
2019-02-17T22:18:33.514Z,28.20
2019-02-17T22:21:05.436Z,27.13
2019-02-17T22:23:39.879Z,30.97
2019-02-17T22:26:11.481Z,27.03
2019-02-17T22:28:43.400Z,30.53
2019-02-17T22:31:15.639Z,29.13
2019-02-17T22:33:47.559Z,30.03
2019-02-17T22:36:19.491Z,29.40
2019-02-17T22:38:51.507Z,28.43
2019-02-17T22:41:23.429Z,28.93
2019-02-17T22:43:55.673Z,29.37
2019-02-17T22:46:27.597Z,30.13
2019-02-17T22:48:59.526Z,29.90
2019-02-17T22:51:31.454Z,29.83
2019-02-17T22:54:03.503Z,28.97
2019-02-17T22:56:36.060Z,27.57
2019-02-17T22:59:08.276Z,28.20
2019-02-17T23:01:40.209Z,28.63
2019-02-17T23:04:12.132Z,30.33
2019-02-17T23:06:53.544Z,29.20
2019-02-17T23:09:17.980Z,29.20
2019-02-17T23:11:49.917Z,29.03
2019-02-17T23:14:21.851Z,28.20
2019-02-17T23:16:53.876Z,29.57
2019-02-17T23:19:25.945Z,29.37
2019-02-17T23:21:57.892Z,29.10
2019-02-17T23:24:30.118Z,30.03
2019-02-17T23:27:04.108Z,29.80
2019-02-17T23:29:35.688Z,29.80
2019-02-17T23:32:07.618Z,29.50
2019-02-17T23:34:39.561Z,29.63
2019-02-17T23:37:11.496Z,28.10
2019-02-17T23:39:43.425Z,29.90
2019-02-17T23:42:15.597Z,31.63
2019-02-17T23:44:47.542Z,29.53
2019-02-17T23:47:19.466Z,29.10
2019-02-17T23:49:51.414Z,28.77
2019-02-17T23:52:23.398Z,30.80
2019-02-17T23:54:55.343Z,29.90
2019-02-17T23:57:27.332Z,31.70
2019-02-17T23:59:59.285Z,30.53
